sensor_id;sensor_type;location;lat;lon;timestamp;pressure;altitude;pressure_sealevel;temperature;humidity
59391;BME280;53405;57.012;40.984;2023-02-01T00:00:43;98863.00;;;0.21;80.52
59391;BME280;53405;57.012;40.984;2023-02-01T00:03:33;98861.22;;;0.11;80.99
59391;BME280;53405;57.012;40.984;2023-02-01T00:06:21;98857.28;;;0.07;80.63
59391;BME280;53405;57.012;40.984;2023-02-01T00:09:09;98861.78;;;-0.05;80.40
59391;BME280;53405;57.012;40.984;2023-02-01T00:11:56;98851.25;;;0.16;79.63
59391;BME280;53405;57.012;40.984;2023-02-01T00:14:46;98864.38;;;0.05;79.75
59391;BME280;53405;57.012;40.984;2023-02-01T00:17:35;98859.19;;;-0.05;80.04
59391;BME280;53405;57.012;40.984;2023-02-01T00:20:22;98862.47;;;-0.03;80.96
59391;BME280;53405;57.012;40.984;2023-02-01T00:23:10;98869.41;;;-0.13;80.81
59391;BME280;53405;57.012;40.984;2023-02-01T00:26:00;98882.09;;;0.00;80.67
59391;BME280;53405;57.012;40.984;2023-02-01T00:28:48;98872.81;;;-0.32;81.02
59391;BME280;53405;57.012;40.984;2023-02-01T00:31:36;98879.47;;;-0.10;81.41
59391;BME280;53405;57.012;40.984;2023-02-01T00:34:23;98884.66;;;-0.20;81.47
59391;BME280;53405;57.012;40.984;2023-02-01T00:37:11;98881.53;;;-0.04;81.37
59391;BME280;53405;57.012;40.984;2023-02-01T00:39:58;98883.97;;;-0.02;80.29
59391;BME280;53405;57.012;40.984;2023-02-01T00:42:46;98880.97;;;0.12;79.84
59391;BME280;53405;57.012;40.984;2023-02-01T00:45:35;98878.94;;;-0.13;80.46
59391;BME280;53405;57.012;40.984;2023-02-01T00:48:22;98887.53;;;-0.03;81.27
59391;BME280;53405;57.012;40.984;2023-02-01T00:51:13;98887.28;;;0.00;80.61
59391;BME280;53405;57.012;40.984;2023-02-01T00:54:01;98884.81;;;0.08;80.21
59391;BME280;53405;57.012;40.984;2023-02-01T00:56:49;98884.25;;;0.05;81.40
59391;BME280;53405;57.012;40.984;2023-02-01T00:59:37;98884.38;;;-0.07;81.27
59391;BME280;53405;57.012;40.984;2023-02-01T01:02:26;98882.34;;;0.07;79.46
59391;BME280;53405;57.012;40.984;2023-02-01T01:05:14;98871.31;;;-0.25;81.28
59391;BME280;53405;57.012;40.984;2023-02-01T01:08:01;98882.63;;;-0.16;80.25
59391;BME280;53405;57.012;40.984;2023-02-01T01:10:49;98871.47;;;-0.36;81.21
59391;BME280;53405;57.012;40.984;2023-02-01T01:13:36;98858.78;;;-0.29;80.90
59391;BME280;53405;57.012;40.984;2023-02-01T01:16:26;98877.84;;;-0.21;81.38
59391;BME280;53405;57.012;40.984;2023-02-01T01:19:14;98876.09;;;-0.30;80.85
59391;BME280;53405;57.012;40.984;2023-02-01T01:22:02;98877.44;;;-0.26;81.53
59391;BME280;53405;57.012;40.984;2023-02-01T01:24:50;98881.13;;;-0.19;82.07
59391;BME280;53405;57.012;40.984;2023-02-01T01:27:38;98848.44;;;-0.20;80.67
59391;BME280;53405;57.012;40.984;2023-02-01T01:30:25;98879.75;;;-0.13;81.09
59391;BME280;53405;57.012;40.984;2023-02-01T01:33:13;98875.16;;;-0.09;81.08
59391;BME280;53405;57.012;40.984;2023-02-01T01:36:01;98872.00;;;-0.32;81.60
59391;BME280;53405;57.012;40.984;2023-02-01T01:38:49;98877.84;;;-0.30;81.54
59391;BME280;53405;57.012;40.984;2023-02-01T01:41:37;98882.34;;;-0.32;82.00
59391;BME280;53405;57.012;40.984;2023-02-01T01:47:56;98883.16;;;-0.22;81.15
59391;BME280;53405;57.012;40.984;2023-02-01T01:50:50;98877.03;;;-0.31;81.61
59391;BME280;53405;57.012;40.984;2023-02-01T01:53:50;98883.97;;;-0.02;80.59
59391;BME280;53405;57.012;40.984;2023-02-01T01:56:40;98897.47;;;-0.08;81.69
59391;BME280;53405;57.012;40.984;2023-02-01T01:59:29;98898.31;;;-0.08;80.56
59391;BME280;53405;57.012;40.984;2023-02-01T02:02:18;98896.50;;;0.12;80.51
59391;BME280;53405;57.012;40.984;2023-02-01T02:05:07;98890.66;;;-0.09;80.75
59391;BME280;53405;57.012;40.984;2023-02-01T02:07:58;98876.06;;;-0.40;81.87
59391;BME280;53405;57.012;40.984;2023-02-01T02:10:48;98892.69;;;-0.23;81.63
59391;BME280;53405;57.012;40.984;2023-02-01T02:13:52;98894.47;;;-0.33;82.22
59391;BME280;53405;57.012;40.984;2023-02-01T02:16:49;98910.00;;;-0.33;82.69
59391;BME280;53405;57.012;40.984;2023-02-01T02:19:59;98907.94;;;-0.20;82.44
59391;BME280;53405;57.012;40.984;2023-02-01T02:23:19;98908.63;;;-0.17;84.32
59391;BME280;53405;57.012;40.984;2023-02-01T02:33:59;98918.00;;;-0.46;85.51
59391;BME280;53405;57.012;40.984;2023-02-01T02:43:13;98926.47;;;-0.34;84.98
59391;BME280;53405;57.012;40.984;2023-02-01T02:46:32;98918.97;;;-0.17;83.93
59391;BME280;53405;57.012;40.984;2023-02-01T02:53:34;98927.28;;;-0.33;84.54
59391;BME280;53405;57.012;40.984;2023-02-01T02:56:43;98913.25;;;-0.21;83.52
59391;BME280;53405;57.012;40.984;2023-02-01T02:59:50;98934.09;;;-0.32;84.06
59391;BME280;53405;57.012;40.984;2023-02-01T03:02:56;98933.41;;;-0.34;83.82
59391;BME280;53405;57.012;40.984;2023-02-01T03:06:02;98937.59;;;-0.53;84.58
59391;BME280;53405;57.012;40.984;2023-02-01T03:08:51;98941.81;;;-0.52;85.99
59391;BME280;53405;57.012;40.984;2023-02-01T03:11:45;98945.09;;;-0.50;85.08
59391;BME280;53405;57.012;40.984;2023-02-01T03:15:03;98945.81;;;-0.19;83.44
59391;BME280;53405;57.012;40.984;2023-02-01T03:17:54;98959.31;;;-0.25;84.93
59391;BME280;53405;57.012;40.984;2023-02-01T03:20:46;98945.09;;;-0.50;84.71
59391;BME280;53405;57.012;40.984;2023-02-01T03:23:37;98956.19;;;-0.69;85.58
59391;BME280;53405;57.012;40.984;2023-02-01T03:26:27;98960.84;;;-0.63;85.56
59391;BME280;53405;57.012;40.984;2023-02-01T03:29:37;98968.47;;;-0.61;84.83
59391;BME280;53405;57.012;40.984;2023-02-01T03:32:26;98957.75;;;-0.47;85.24
59391;BME280;53405;57.012;40.984;2023-02-01T03:35:15;98956.22;;;-0.59;85.45
59391;BME280;53405;57.012;40.984;2023-02-01T03:39:11;98955.84;;;-0.45;84.92
59391;BME280;53405;57.012;40.984;2023-02-01T03:45:01;98945.91;;;-0.49;85.25
59391;BME280;53405;57.012;40.984;2023-02-01T03:47:54;98964.38;;;-0.64;86.01
59391;BME280;53405;57.012;40.984;2023-02-01T03:50:48;98956.25;;;-0.40;85.71
59391;BME280;53405;57.012;40.984;2023-02-01T03:53:38;98970.16;;;-0.41;85.41
59391;BME280;53405;57.012;40.984;2023-02-01T03:56:28;98967.06;;;-0.34;84.94
59391;BME280;53405;57.012;40.984;2023-02-01T03:59:16;98975.22;;;-0.39;85.27
59391;BME280;53405;57.012;40.984;2023-02-01T04:02:04;98974.56;;;-0.31;85.03
59391;BME280;53405;57.012;40.984;2023-02-01T04:04:51;98980.78;;;-0.44;85.20
59391;BME280;53405;57.012;40.984;2023-02-01T04:07:39;98981.06;;;-0.27;84.22
59391;BME280;53405;57.012;40.984;2023-02-01T04:10:27;98986.59;;;-0.51;85.03
59391;BME280;53405;57.012;40.984;2023-02-01T04:13:15;98979.59;;;-0.20;84.44
59391;BME280;53405;57.012;40.984;2023-02-01T04:16:02;98986.03;;;-0.05;83.17
59391;BME280;53405;57.012;40.984;2023-02-01T04:18:50;98997.97;;;-0.23;83.51
59391;BME280;53405;57.012;40.984;2023-02-01T04:21:36;99001.22;;;-0.31;84.92
59391;BME280;53405;57.012;40.984;2023-02-01T04:24:26;99001.38;;;-0.23;85.06
59391;BME280;53405;57.012;40.984;2023-02-01T04:27:14;99002.91;;;-0.01;83.04
59391;BME280;53405;57.012;40.984;2023-02-01T04:30:04;99011.34;;;-0.08;83.19
59391;BME280;53405;57.012;40.984;2023-02-01T04:32:52;99004.41;;;-0.08;82.92
59391;BME280;53405;57.012;40.984;2023-02-01T04:35:40;99015.44;;;-0.15;84.28
59391;BME280;53405;57.012;40.984;2023-02-01T04:38:27;99009.00;;;-0.21;84.01
59391;BME280;53405;57.012;40.984;2023-02-01T04:41:16;99018.03;;;-0.15;84.01
59391;BME280;53405;57.012;40.984;2023-02-01T04:44:06;99032.69;;;-0.26;83.74
59391;BME280;53405;57.012;40.984;2023-02-01T04:46:53;99025.72;;;-0.35;84.50
59391;BME280;53405;57.012;40.984;2023-02-01T04:49:41;99020.16;;;-0.21;84.39
59391;BME280;53405;57.012;40.984;2023-02-01T04:52:29;99024.94;;;-0.16;83.76
59391;BME280;53405;57.012;40.984;2023-02-01T04:55:16;99037.22;;;-0.18;83.09
59391;BME280;53405;57.012;40.984;2023-02-01T04:58:04;99041.34;;;-0.06;83.46
59391;BME280;53405;57.012;40.984;2023-02-01T05:00:52;99042.63;;;-0.31;83.24
59391;BME280;53405;57.012;40.984;2023-02-01T05:03:39;99047.94;;;-0.32;83.88
59391;BME280;53405;57.012;40.984;2023-02-01T05:06:27;99053.66;;;-0.29;84.24
59391;BME280;53405;57.012;40.984;2023-02-01T05:09:15;99056.50;;;-0.32;83.18
59391;BME280;53405;57.012;40.984;2023-02-01T05:12:02;99048.34;;;-0.27;83.96
59391;BME280;53405;57.012;40.984;2023-02-01T05:15:08;99059.31;;;-0.14;84.21
59391;BME280;53405;57.012;40.984;2023-02-01T05:17:57;99065.41;;;-0.15;82.33
59391;BME280;53405;57.012;40.984;2023-02-01T05:20:44;99066.50;;;-0.17;82.24
59391;BME280;53405;57.012;40.984;2023-02-01T05:23:32;99074.00;;;-0.14;84.24
59391;BME280;53405;57.012;40.984;2023-02-01T05:26:19;99060.75;;;-0.31;84.25
59391;BME280;53405;57.012;40.984;2023-02-01T05:29:09;99050.16;;;-0.18;82.30
59391;BME280;53405;57.012;40.984;2023-02-01T05:31:57;99083.00;;;-0.19;83.26
59391;BME280;53405;57.012;40.984;2023-02-01T05:34:51;99078.63;;;-0.18;83.23
59391;BME280;53405;57.012;40.984;2023-02-01T05:37:38;99076.97;;;-0.19;83.36
59391;BME280;53405;57.012;40.984;2023-02-01T05:40:26;99097.88;;;-0.11;83.11
59391;BME280;53405;57.012;40.984;2023-02-01T05:43:14;99090.75;;;-0.19;83.36
59391;BME280;53405;57.012;40.984;2023-02-01T05:46:02;99088.28;;;-0.20;82.83
59391;BME280;53405;57.012;40.984;2023-02-01T05:48:49;99088.06;;;-0.38;82.96
59391;BME280;53405;57.012;40.984;2023-02-01T05:51:37;99108.88;;;-0.19;83.88
59391;BME280;53405;57.012;40.984;2023-02-01T05:54:25;99099.00;;;-0.34;84.08
59391;BME280;53405;57.012;40.984;2023-02-01T05:57:12;99108.03;;;-0.19;83.95
59391;BME280;53405;57.012;40.984;2023-02-01T06:00:00;99092.75;;;-0.22;82.67
59391;BME280;53405;57.012;40.984;2023-02-01T06:02:58;99101.47;;;-0.33;83.16
59391;BME280;53405;57.012;40.984;2023-02-01T06:05:47;99116.09;;;-0.43;84.03
59391;BME280;53405;57.012;40.984;2023-02-01T06:08:36;99110.28;;;-0.35;84.76
59391;BME280;53405;57.012;40.984;2023-02-01T06:11:27;99115.88;;;-0.30;84.42
59391;BME280;53405;57.012;40.984;2023-02-01T06:14:19;99118.63;;;-0.22;84.76
59391;BME280;53405;57.012;40.984;2023-02-01T06:17:07;99123.00;;;-0.23;84.05
59391;BME280;53405;57.012;40.984;2023-02-01T06:19:55;99116.81;;;-0.01;83.00
59391;BME280;53405;57.012;40.984;2023-02-01T06:22:43;99127.78;;;-0.18;83.60
59391;BME280;53405;57.012;40.984;2023-02-01T06:25:30;99114.84;;;-0.18;83.99
59391;BME280;53405;57.012;40.984;2023-02-01T06:28:18;99106.25;;;-0.28;84.59
59391;BME280;53405;57.012;40.984;2023-02-01T06:31:06;99130.88;;;-0.03;84.35
59391;BME280;53405;57.012;40.984;2023-02-01T06:33:55;99139.88;;;-0.28;84.44
59391;BME280;53405;57.012;40.984;2023-02-01T06:36:42;99138.66;;;-0.24;84.47
59391;BME280;53405;57.012;40.984;2023-02-01T06:39:30;99137.44;;;-0.30;85.81
59391;BME280;53405;57.012;40.984;2023-02-01T06:42:18;99137.97;;;-0.26;86.46
59391;BME280;53405;57.012;40.984;2023-02-01T06:45:06;99129.91;;;-0.02;86.64
59391;BME280;53405;57.012;40.984;2023-02-01T06:47:58;99131.44;;;-0.21;85.58
59391;BME280;53405;57.012;40.984;2023-02-01T06:50:47;99142.28;;;-0.06;85.09
59391;BME280;53405;57.012;40.984;2023-02-01T06:53:34;99146.72;;;-0.17;86.02
59391;BME280;53405;57.012;40.984;2023-02-01T06:56:22;99144.22;;;-0.29;85.76
59391;BME280;53405;57.012;40.984;2023-02-01T06:59:12;99156.09;;;-0.26;85.22
59391;BME280;53405;57.012;40.984;2023-02-01T07:02:02;99149.53;;;-0.30;85.97
59391;BME280;53405;57.012;40.984;2023-02-01T07:04:50;99159.38;;;-0.24;86.47
59391;BME280;53405;57.012;40.984;2023-02-01T07:07:38;99155.09;;;-0.04;86.20
59391;BME280;53405;57.012;40.984;2023-02-01T07:10:25;99157.69;;;-0.04;86.17
59391;BME280;53405;57.012;40.984;2023-02-01T07:13:12;99164.13;;;-0.29;87.73
59391;BME280;53405;57.012;40.984;2023-02-01T07:16:01;99165.22;;;-0.22;88.13
59391;BME280;53405;57.012;40.984;2023-02-01T07:18:50;99159.59;;;-0.06;88.13
59391;BME280;53405;57.012;40.984;2023-02-01T07:21:38;99159.03;;;-0.10;86.86
59391;BME280;53405;57.012;40.984;2023-02-01T07:24:25;99169.97;;;-0.27;86.81
59391;BME280;53405;57.012;40.984;2023-02-01T07:27:13;99170.28;;;-0.21;87.23
59391;BME280;53405;57.012;40.984;2023-02-01T07:30:00;99175.53;;;-0.11;85.90
59391;BME280;53405;57.012;40.984;2023-02-01T07:32:50;99180.38;;;-0.17;86.74
59391;BME280;53405;57.012;40.984;2023-02-01T07:35:37;99175.56;;;-0.01;85.73
59391;BME280;53405;57.012;40.984;2023-02-01T07:38:25;99174.22;;;-0.26;86.28
59391;BME280;53405;57.012;40.984;2023-02-01T07:41:12;99183.03;;;-0.08;84.85
59391;BME280;53405;57.012;40.984;2023-02-01T07:44:00;99178.88;;;-0.20;85.32
59391;BME280;53405;57.012;40.984;2023-02-01T07:46:50;99177.69;;;-0.37;86.10
59391;BME280;53405;57.012;40.984;2023-02-01T07:49:38;99169.81;;;-0.35;86.17
59391;BME280;53405;57.012;40.984;2023-02-01T07:52:28;99180.13;;;-0.14;86.07
59391;BME280;53405;57.012;40.984;2023-02-01T07:55:16;99174.88;;;-0.24;85.59
59391;BME280;53405;57.012;40.984;2023-02-01T07:58:04;99180.25;;;-0.16;85.71
59391;BME280;53405;57.012;40.984;2023-02-01T08:00:52;99173.63;;;-0.09;84.58
59391;BME280;53405;57.012;40.984;2023-02-01T08:03:59;99161.31;;;-0.16;84.89
59391;BME280;53405;57.012;40.984;2023-02-01T08:06:48;99191.28;;;0.17;84.67
59391;BME280;53405;57.012;40.984;2023-02-01T08:09:36;99187.97;;;0.05;84.89
59391;BME280;53405;57.012;40.984;2023-02-01T08:12:24;99187.50;;;0.21;84.87
59391;BME280;53405;57.012;40.984;2023-02-01T08:15:12;99181.97;;;0.05;85.98
59391;BME280;53405;57.012;40.984;2023-02-01T08:18:00;99187.28;;;0.03;87.33
59391;BME280;53405;57.012;40.984;2023-02-01T08:20:49;99183.66;;;0.15;84.80
59391;BME280;53405;57.012;40.984;2023-02-01T08:23:39;99183.72;;;0.35;85.20
59391;BME280;53405;57.012;40.984;2023-02-01T08:26:27;99193.47;;;0.22;84.73
59391;BME280;53405;57.012;40.984;2023-02-01T08:29:14;99192.53;;;0.23;84.34
59391;BME280;53405;57.012;40.984;2023-02-01T08:32:02;99189.44;;;-0.02;84.83
59391;BME280;53405;57.012;40.984;2023-02-01T08:34:50;99189.56;;;-0.04;85.00
59391;BME280;53405;57.012;40.984;2023-02-01T08:37:37;99190.72;;;-0.17;85.30
59391;BME280;53405;57.012;40.984;2023-02-01T08:40:25;99186.50;;;-0.19;84.73
59391;BME280;53405;57.012;40.984;2023-02-01T08:43:13;99183.91;;;0.12;84.98
59391;BME280;53405;57.012;40.984;2023-02-01T08:46:03;99184.16;;;0.09;83.59
59391;BME280;53405;57.012;40.984;2023-02-01T08:48:51;99163.25;;;-0.09;84.66
59391;BME280;53405;57.012;40.984;2023-02-01T08:51:39;99181.31;;;0.12;85.08
59391;BME280;53405;57.012;40.984;2023-02-01T08:54:26;99187.50;;;0.21;83.51
59391;BME280;53405;57.012;40.984;2023-02-01T08:57:14;99188.56;;;0.18;83.48
59391;BME280;53405;57.012;40.984;2023-02-01T09:00:03;99185.78;;;0.01;84.18
59391;BME280;53405;57.012;40.984;2023-02-01T09:02:51;99187.63;;;0.20;83.21
59391;BME280;53405;57.012;40.984;2023-02-01T09:05:39;99189.41;;;0.19;82.80
59391;BME280;53405;57.012;40.984;2023-02-01T09:08:35;99180.06;;;-0.03;82.46
59391;BME280;53405;57.012;40.984;2023-02-01T09:11:23;99191.25;;;0.07;82.46
59391;BME280;53405;57.012;40.984;2023-02-01T09:14:11;99190.22;;;0.20;82.25
59391;BME280;53405;57.012;40.984;2023-02-01T09:17:01;99198.94;;;0.28;82.35
59391;BME280;53405;57.012;40.984;2023-02-01T09:19:48;99188.19;;;0.23;82.79
59391;BME280;53405;57.012;40.984;2023-02-01T09:22:36;99202.25;;;0.30;83.21
59391;BME280;53405;57.012;40.984;2023-02-01T09:25:23;99195.13;;;0.23;83.00
59391;BME280;53405;57.012;40.984;2023-02-01T09:28:11;99197.56;;;0.14;83.42
59391;BME280;53405;57.012;40.984;2023-02-01T09:31:00;99201.81;;;0.25;81.72
59391;BME280;53405;57.012;40.984;2023-02-01T09:33:48;99178.84;;;0.11;82.59
59391;BME280;53405;57.012;40.984;2023-02-01T09:36:36;99206.56;;;0.20;82.95
59391;BME280;53405;57.012;40.984;2023-02-01T09:39:27;99195.00;;;0.24;82.12
59391;BME280;53405;57.012;40.984;2023-02-01T09:45:36;99194.34;;;0.32;82.07
59391;BME280;53405;57.012;40.984;2023-02-01T09:48:31;99200.09;;;0.35;81.31
59391;BME280;53405;57.012;40.984;2023-02-01T09:51:26;99199.53;;;0.32;82.78
59391;BME280;53405;57.012;40.984;2023-02-01T09:54:23;99200.34;;;0.32;82.81
59391;BME280;53405;57.012;40.984;2023-02-01T09:57:23;99206.25;;;0.44;82.93
59391;BME280;53405;57.012;40.984;2023-02-01T10:03:12;99199.47;;;0.63;79.93
59391;BME280;53405;57.012;40.984;2023-02-01T10:16:04;99205.41;;;0.44;81.27
59391;BME280;53405;57.012;40.984;2023-02-01T10:25:58;99193.25;;;0.34;81.56
59391;BME280;53405;57.012;40.984;2023-02-01T10:28:56;99196.69;;;0.45;81.60
59391;BME280;53405;57.012;40.984;2023-02-01T10:31:46;99196.34;;;0.69;80.63
59391;BME280;53405;57.012;40.984;2023-02-01T10:34:34;99201.53;;;0.69;80.76
59391;BME280;53405;57.012;40.984;2023-02-01T10:37:34;99201.63;;;0.58;80.99
59391;BME280;53405;57.012;40.984;2023-02-01T10:40:23;99196.59;;;0.56;82.18
59391;BME280;53405;57.012;40.984;2023-02-01T10:43:12;99199.72;;;0.60;81.87
59391;BME280;53405;57.012;40.984;2023-02-01T10:46:00;99193.72;;;0.49;82.17
59391;BME280;53405;57.012;40.984;2023-02-01T10:48:49;99197.91;;;0.41;80.65
59391;BME280;53405;57.012;40.984;2023-02-01T10:51:51;99201.88;;;0.45;80.55
59391;BME280;53405;57.012;40.984;2023-02-01T10:54:42;99193.19;;;0.56;79.57
59391;BME280;53405;57.012;40.984;2023-02-01T10:57:30;99190.50;;;0.26;80.22
59391;BME280;53405;57.012;40.984;2023-02-01T11:00:20;99194.09;;;0.35;80.75
59391;BME280;53405;57.012;40.984;2023-02-01T11:03:42;99207.63;;;0.48;80.42
59391;BME280;53405;57.012;40.984;2023-02-01T11:09:24;99206.19;;;0.34;79.56
59391;BME280;53405;57.012;40.984;2023-02-01T11:15:21;99207.94;;;0.24;80.54
59391;BME280;53405;57.012;40.984;2023-02-01T11:18:18;99207.16;;;0.24;79.63
59391;BME280;53405;57.012;40.984;2023-02-01T11:21:07;99205.94;;;0.38;81.91
59391;BME280;53405;57.012;40.984;2023-02-01T11:24:00;99207.63;;;0.48;81.35
59391;BME280;53405;57.012;40.984;2023-02-01T11:26:48;99212.63;;;0.40;81.90
59391;BME280;53405;57.012;40.984;2023-02-01T11:29:38;99212.25;;;0.45;81.43
59391;BME280;53405;57.012;40.984;2023-02-01T11:32:28;99207.47;;;0.40;80.75
59391;BME280;53405;57.012;40.984;2023-02-01T11:35:19;99214.34;;;0.20;81.42
59391;BME280;53405;57.012;40.984;2023-02-01T11:38:15;99217.75;;;0.21;81.23
59391;BME280;53405;57.012;40.984;2023-02-01T11:44:46;99219.34;;;0.12;80.33
59391;BME280;53405;57.012;40.984;2023-02-01T11:47:40;99220.00;;;0.04;81.37
59391;BME280;53405;57.012;40.984;2023-02-01T11:54:18;99222.19;;;0.09;81.40
59391;BME280;53405;57.012;40.984;2023-02-01T11:56:55;99227.25;;;0.10;82.16
59391;BME280;53405;57.012;40.984;2023-02-01T12:09:40;99240.56;;;0.06;81.21
59391;BME280;53405;57.012;40.984;2023-02-01T12:12:36;99238.34;;;0.22;81.79
59391;BME280;53405;57.012;40.984;2023-02-01T12:15:29;99243.06;;;0.17;80.88
59391;BME280;53405;57.012;40.984;2023-02-01T12:21:22;99247.31;;;0.18;81.43
59391;BME280;53405;57.012;40.984;2023-02-01T12:28:14;99243.47;;;0.12;81.84
59391;BME280;53405;57.012;40.984;2023-02-01T12:31:18;99242.84;;;0.30;80.71
59391;BME280;53405;57.012;40.984;2023-02-01T12:34:26;99247.63;;;0.25;80.00
59391;BME280;53405;57.012;40.984;2023-02-01T12:40:57;99229.97;;;0.09;81.39
59391;BME280;53405;57.012;40.984;2023-02-01T12:43:38;99260.44;;;0.26;79.37
59391;BME280;53405;57.012;40.984;2023-02-01T12:46:31;99252.88;;;0.13;80.17
59391;BME280;53405;57.012;40.984;2023-02-01T12:52:40;99254.75;;;0.32;80.43
59391;BME280;53405;57.012;40.984;2023-02-01T12:55:42;99259.00;;;0.12;81.09
59391;BME280;53405;57.012;40.984;2023-02-01T12:58:42;99254.28;;;0.17;81.58
59391;BME280;53405;57.012;40.984;2023-02-01T13:01:39;99226.91;;;-0.06;80.31
59391;BME280;53405;57.012;40.984;2023-02-01T13:04:38;99257.50;;;0.10;81.00
59391;BME280;53405;57.012;40.984;2023-02-01T13:07:36;99258.47;;;0.18;81.10
59391;BME280;53405;57.012;40.984;2023-02-01T13:13:44;99242.88;;;-0.01;80.26
59391;BME280;53405;57.012;40.984;2023-02-01T13:16:45;99255.13;;;-0.03;80.74
59391;BME280;53405;57.012;40.984;2023-02-01T13:19:48;99259.50;;;0.06;81.96
59391;BME280;53405;57.012;40.984;2023-02-01T13:22:40;99249.75;;;0.10;81.06
59391;BME280;53405;57.012;40.984;2023-02-01T13:25:46;99252.63;;;0.16;79.80
59391;BME280;53405;57.012;40.984;2023-02-01T13:41:24;99251.84;;;0.26;80.23
59391;BME280;53405;57.012;40.984;2023-02-01T13:44:15;99260.22;;;0.08;80.52
59391;BME280;53405;57.012;40.984;2023-02-01T13:47:22;99265.53;;;0.07;80.01
59391;BME280;53405;57.012;40.984;2023-02-01T13:50:33;99263.75;;;0.07;80.35
59391;BME280;53405;57.012;40.984;2023-02-01T13:53:33;99267.88;;;0.10;79.61
59391;BME280;53405;57.012;40.984;2023-02-01T13:56:24;99265.41;;;0.08;80.34
59391;BME280;53405;57.012;40.984;2023-02-01T14:02:45;99271.94;;;0.12;80.41
59391;BME280;53405;57.012;40.984;2023-02-01T14:05:54;99273.53;;;0.04;80.53
59391;BME280;53405;57.012;40.984;2023-02-01T14:08:43;99257.13;;;-0.07;79.84
59391;BME280;53405;57.012;40.984;2023-02-01T14:20:45;99290.66;;;-0.05;81.69
59391;BME280;53405;57.012;40.984;2023-02-01T14:23:40;99296.28;;;0.00;81.36
59391;BME280;53405;57.012;40.984;2023-02-01T14:29:30;99292.25;;;-0.14;82.11
59391;BME280;53405;57.012;40.984;2023-02-01T14:32:22;99304.59;;;-0.17;82.53
59391;BME280;53405;57.012;40.984;2023-02-01T14:35:25;99302.38;;;-0.22;83.11
59391;BME280;53405;57.012;40.984;2023-02-01T14:38:13;99313.50;;;-0.10;83.16
59391;BME280;53405;57.012;40.984;2023-02-01T14:41:31;99306.72;;;-0.44;84.13
59391;BME280;53405;57.012;40.984;2023-02-01T14:44:26;99313.25;;;-0.28;84.61
59391;BME280;53405;57.012;40.984;2023-02-01T14:56:12;99314.88;;;-0.48;84.70
59391;BME280;53405;57.012;40.984;2023-02-01T14:59:08;99314.81;;;-0.37;84.52
59391;BME280;53405;57.012;40.984;2023-02-01T15:02:00;99299.34;;;-0.48;85.01
59391;BME280;53405;57.012;40.984;2023-02-01T15:04:54;99313.28;;;-0.40;84.30
59391;BME280;53405;57.012;40.984;2023-02-01T15:07:42;99315.06;;;-0.40;84.08
59391;BME280;53405;57.012;40.984;2023-02-01T15:10:31;99322.25;;;-0.44;84.65
59391;BME280;53405;57.012;40.984;2023-02-01T15:13:27;99313.41;;;-0.41;83.80
59391;BME280;53405;57.012;40.984;2023-02-01T15:16:17;99311.16;;;-0.34;85.12
59391;BME280;53405;57.012;40.984;2023-02-01T15:19:09;99303.16;;;-0.64;84.81
59391;BME280;53405;57.012;40.984;2023-02-01T15:22:00;99313.59;;;-0.54;84.01
59391;BME280;53405;57.012;40.984;2023-02-01T15:24:56;99316.28;;;-0.56;84.37
59391;BME280;53405;57.012;40.984;2023-02-01T15:27:44;99309.63;;;-0.58;84.20
59391;BME280;53405;57.012;40.984;2023-02-01T15:30:33;99322.06;;;-0.52;84.68
59391;BME280;53405;57.012;40.984;2023-02-01T15:33:21;99315.53;;;-0.67;85.61
59391;BME280;53405;57.012;40.984;2023-02-01T15:36:11;99309.50;;;-0.68;84.92
59391;BME280;53405;57.012;40.984;2023-02-01T15:42:12;99318.56;;;-0.62;84.22
59391;BME280;53405;57.012;40.984;2023-02-01T15:45:19;99322.84;;;-0.73;85.54
59391;BME280;53405;57.012;40.984;2023-02-01T15:48:18;99317.53;;;-0.82;86.54
59391;BME280;53405;57.012;40.984;2023-02-01T15:51:18;99321.09;;;-0.83;86.46
59391;BME280;53405;57.012;40.984;2023-02-01T15:54:07;99311.09;;;-0.88;86.80
59391;BME280;53405;57.012;40.984;2023-02-01T15:57:02;99304.41;;;-0.91;86.23
59391;BME280;53405;57.012;40.984;2023-02-01T15:59:52;99312.28;;;-0.92;86.98
59391;BME280;53405;57.012;40.984;2023-02-01T16:02:51;99313.22;;;-0.93;86.71
59391;BME280;53405;57.012;40.984;2023-02-01T16:05:42;99322.75;;;-0.94;86.57
59391;BME280;53405;57.012;40.984;2023-02-01T16:08:34;99309.81;;;-0.94;85.94
59391;BME280;53405;57.012;40.984;2023-02-01T16:11:32;99318.25;;;-0.92;86.99
59391;BME280;53405;57.012;40.984;2023-02-01T16:14:20;99317.47;;;-1.03;87.02
59391;BME280;53405;57.012;40.984;2023-02-01T16:17:08;99312.53;;;-1.06;86.39
59391;BME280;53405;57.012;40.984;2023-02-01T16:19:57;99315.03;;;-1.16;88.26
59391;BME280;53405;57.012;40.984;2023-02-01T16:22:45;99321.34;;;-1.09;88.18
59391;BME280;53405;57.012;40.984;2023-02-01T16:25:32;99329.56;;;-1.15;89.09
59391;BME280;53405;57.012;40.984;2023-02-01T16:28:20;99327.69;;;-1.02;88.47
59391;BME280;53405;57.012;40.984;2023-02-01T16:31:16;99318.38;;;-0.93;89.10
59391;BME280;53405;57.012;40.984;2023-02-01T16:34:15;99316.75;;;-0.94;87.61
59391;BME280;53405;57.012;40.984;2023-02-01T16:37:05;99310.31;;;-1.11;87.86
59391;BME280;53405;57.012;40.984;2023-02-01T16:39:53;99311.97;;;-1.10;87.62
59391;BME280;53405;57.012;40.984;2023-02-01T16:42:40;99327.56;;;-1.00;87.20
59391;BME280;53405;57.012;40.984;2023-02-01T16:45:28;99319.34;;;-1.17;88.20
59391;BME280;53405;57.012;40.984;2023-02-01T16:48:26;99336.03;;;-1.10;88.32
59391;BME280;53405;57.012;40.984;2023-02-01T16:51:15;99326.13;;;-0.93;89.20
59391;BME280;53405;57.012;40.984;2023-02-01T16:54:03;99336.25;;;-0.90;86.77
59391;BME280;53405;57.012;40.984;2023-02-01T16:56:54;99313.72;;;-1.11;87.68
59391;BME280;53405;57.012;40.984;2023-02-01T16:59:42;99315.81;;;-1.04;86.31
59391;BME280;53405;57.012;40.984;2023-02-01T17:02:31;99341.44;;;-1.01;87.56
59391;BME280;53405;57.012;40.984;2023-02-01T17:05:18;99340.63;;;-1.02;87.30
59391;BME280;53405;57.012;40.984;2023-02-01T17:08:07;99344.00;;;-0.90;86.91